AirNav   Air Wisconsin pilot careers
 
 351 users online  

PAAN Gold King Creek Airport
Fairbanks, Alaska, USA


FAA INFORMATION EFFECTIVE 01 FEBRUARY 2018

Location

FAA Identifier: AK7
Lat/Long: 64-11-53.0000N / 147-55-43.0000W
64-11.883333N / 147-55.716667W
64.1980556 / -147.9286111
(estimated)
Elevation: 1720 ft. / 524 m (estimated)
Variation: 25E (1965)
From city: 39 miles SE of FAIRBANKS, AK
Time zone: UTC -9 (UTC -8 during Daylight Saving Time)
Zip code: 99743

Airport Operations

Airport use: Open to the public
Activation date: 02/2001
Control tower: no
ARTCC: ANCHORAGE CENTER
FSS: FAIRBANKS FLIGHT SERVICE STATION [907-474-0788]
NOTAMs facility: FAI (NOTAM-D service available)
Attendance: UNATNDD
Wind indicator: yes
Segmented circle: no

Airport Communications

CTAF: 122.9

Nearby radio navigation aids

VOR radial/distance  VOR name  Freq  Var
FAIr156/36.2FAIRBANKS VORTAC108.6021E
ENNr107/37.9NENANA VORTAC115.8021E

 
NDB name  Hdg/Dist  Freq  Var  ID
ICE POOL107/36.452518EICW .. -.-. .--

Airport Services

Runway Information

Runway 9/27

Dimensions: 2558 x 17 ft. / 780 x 5 m
Surface: gravel/dirt, in fair condition
ROCKS UP TO 6 INCHES ON RY SFC.
RUNWAY 9  RUNWAY 27
Latitude: 64-11.993708N64-11.772323N
Longitude: 147-56.125273W147-55.307022W
Traffic pattern: leftleft
Runway heading: 097 magnetic, 122 true277 magnetic, 302 true
Obstructions: 32 ft. trees25 ft. brush, 90 ft. left and right of centerline

Airport Ownership and Management from official FAA records

Ownership: Publicly-owned
Owner: ALASKA DOT&PF NORTHERN REGION
2301 PEGER ROAD
FAIRBANKS, AK 99709
Phone 907-451-2200
Manager: TOM WILLIAMS
2301 PEGER ROAD
FAIRBANKS, AK 99709
Phone (907) 451-5280

Airport Operational Statistics

Aircraft based on the field: 1
Single engine airplanes: 1
    
Aircraft operations: 50/year *
100% local general aviation
* for 12-month period ending 31 December 2014

Additional Remarks

RY CONDITION NOT MONITORED; RECOMMEND VISUAL INSP PRIOR TO LANDING.
NO SVCS AVBL.
40 FT TREES ON BOTH SIDES OF RY WITHIN 50 FT OF CENTERLINE.
RY SUITABLE FOR HIGH WING ACFT ONLY.
RY 27 HAS A 500 FT SAFETY AREA WITH TREES UP TO 3 FT GROWING ON SFC.

Instrument Procedures

There are no published instrument procedures at PAAN.

Some nearby airports with instrument procedures:

PAHV - Healy River Airport (34 nm SW)
PAEI - Eielson Air Force Base (35 nm NE)
PANN - Nenana Municipal Airport (36 nm NW)
PAFA - Fairbanks International Airport (37 nm N)
PAFB - Ladd Army Airfield (39 nm N)
 
Loc | Ops | Rwys | IFR | FBO | Links
Com | Nav | Svcs | Stats | Notes

Crowley
 
Area around PAAN (Gold King Creek Airport)
 
Road maps at: MapQuest Bing Google
 
Aerial photo
WARNING: Photo may not be current or correct
Aerial photo of PAAN (Gold King Creek Airport)
Photo taken 18-Feb-2012
looking west.

Do you have a better or more recent aerial photo of Gold King Creek Airport that you would like to share? If so, please send us your photo.

 
Sectional chart

 
Airport distance calculator
Flying to Gold King Creek Airport? Find the distance to fly.

From to PAAN

Sunrise and sunset
Times for 22-Feb-2018
 Local
(UTC-9)
 Zulu
(UTC)
Morning civil twilight07:3416:34
Sunrise08:2417:24
Sunset17:4602:46
Evening civil twilight18:3603:36

Current date and time
Zulu (UTC)  23-Feb-2018 08:39:41
Local (UTC-9)  22-Feb-2018 23:39:41
 
METAR
PAEI 
35nm NE 
230756Z 25009KT 3SM -SN FEW005 OVC014 M04/M06 A2993 RMK AO2A SNE18UPB18E47SNB47 SLP146 P0000 T10431060 VISNO RWY32 CHINO RWY32 $
PANN 
37nm NW 
230823Z AUTO 26010G21KT 220V300 2 1/2SM -SN BR FEW016 OVC036 M04/M06 A2997 RMK AO2 P0000 T10391061 TSNO
PAFA 
37nm N 
230816Z 24011G18KT 1SM R02L/P6000FT -SN BR VV012 M04/M06 A2993 RMK AO2 T10441061 $
PAIN 
38nm SW 
230756Z AUTO 30008G20KT 240V350 6SM -SN BKN040 OVC050 M06/M12 A2993 RMK AO2 PRESRR SLP174 P0000 T10561117 FZRANO
PAFB 
39nm N 
230802Z AUTO 24018KT 10SM OVC024 M04/M06 A2992 RMK AO2 SNE02 SLP141
TAF
PAEI 
35nm NE 
230730Z 2307/2410 28015G25KT 4800 -SN BKN013 620139 QNH2975INS BECMG 2307/2308 25012G18KT 9999 VCSH OVC013 620139 QNH2985INS BECMG 2317/2318 26009KT 9999 NSW BKN040 620406 QNH2988INS BECMG 2323/2324 27010KT 9999 BKN040 620406 QNH3000INS TXM01/2404Z TNM09/2316Z
PAFA 
37nm N 
230538Z 2306/2412 25013G27KT 1SM -SN BR OVC021 FM231500 27014G20KT 1 1/2SM -SN BR OVC025 FM232300 25011KT 4SM -SN BR OVC035
PAFB 
39nm N 
222126Z 2221/2402 VRB06KT 9000 -SN BR BKN010 OVC030 620109 QNH2973INS BECMG 2303/2304 27010KT 3200 -SN BKN010 OVC020 620109 QNH2968INS BECMG 2322/2323 27010KT 9999 VCSH SCT050 QNH2962INS TXM02/2300Z TNM08/2313Z
NOTAMs
Click for the latest NOTAMs
NOTAMs are issued by the DoD/FAA and will open in a separate window not controlled by AirNav.

 

 
 

Would you like to see your business listed on this page?

 If your business provides an interesting product or service to pilots, flight crews, aircraft, or users of the Gold King Creek Airport, you should consider listing it here.  To start the listing process, click on the button below
 
Add a business
 

Other Pages about Gold King Creek Airport

Update a link
 
Copyright © AirNav, LLC. All rights reserved. Privacy Policy  Contact